Aguascalientes, Mexico

9:48 PM CST on February 11, 2016 (GMT -0600)
Jesus Teran International | | Change Station
CLOSE
Current Station
Airport
Location: Aguascalientes,
Elevation: 6109 ft
Nearby Weather Stations

Elev 6109 ft 21.70 °N, 102.32 °W | Updated 1 hour ago

Partly Cloudy
Partly Cloudy
59 °F
Feels Like 59 °F
N
6
Wind Variable Wind from NNE

Today
High -- | Low -- °F
--% Chance of Precip.
Yesterday
High -- | Low -- °F
Precip. -- in
Pressure 30.32 in
Visibility 10.0 miles
Clouds Few 20000 ft
Dew Point 18 °F
Humidity 20%
Rainfall 0.00 in
Snow Depth Not available.
7:22 AM 6:44 PM
Waxing Crescent, 17% visible
METAR MMAS 120244Z 03005KT 10SM FEW200 15/M08 A3032 RMK 8/002
Pressure 30.32 in
Visibility 10.0 miles
Clouds Few 20000 ft
Dew Point 18 °F
Humidity 20%
Rainfall 0.00 in
Snow Depth Not available.
7:22 AM 6:44 PM
Waxing Crescent, 17% visible
METAR MMAS 120244Z 03005KT 10SM FEW200 15/M08 A3032 RMK 8/002

10-Day Weather Forecast

No radar image for this location.
×

Almanac

Astronomy

Feb. 11, 2016 Rise Set
Actual Time
Civil Twilight
Nautical Twilight
Astronomical Twilight
Moon
Length of Visible Light
Length of Day
Tomorrow will be .
, % of the Moon is Illuminated

Today's Extremes

Country Highs Country Lows

Community

WunderPhotos

Upload Photos

1,892,254 photos uploaded!

WunderBlog® & News

Nearby

Air Quality

  Air Quality AQ Index Pollutant
Not available.

Snow Depth

Station Depth Elevation

Earthquake Activity

City Distance Mag. Time & Date
Minimum magnitude displayed is 2.5.

Coastal Water Temperatures

Place Temperature

Stations

Nearby Weather Stations

Station Location Temp. Windchill Dew Point Humidity Wind Precip. Elev Updated Type